createdAt,value
2022-12-15T00:02:17.214Z,99417.74
2022-12-15T00:07:42.032Z,99415.73
2022-12-15T00:13:06.786Z,99415.33
2022-12-15T00:18:31.355Z,99414.14
2022-12-15T00:23:56.188Z,99409.66
2022-12-15T00:29:20.587Z,99409.33
2022-12-15T00:34:45.365Z,99413.99
2022-12-15T00:39:59.296Z,99414.67
2022-12-15T00:45:05.857Z,99409.44
2022-12-15T00:50:30.872Z,99410.03
2022-12-15T00:55:55.740Z,99401.89
2022-12-15T01:01:28.524Z,99399.21
2022-12-15T01:06:53.075Z,99400.13
2022-12-15T01:12:17.540Z,99394.48
2022-12-15T01:17:42.739Z,99388.34
2022-12-15T01:22:50.272Z,99385.73
2022-12-15T01:27:56.149Z,99390.24
2022-12-15T01:33:01.825Z,99390.58
2022-12-15T01:38:08.174Z,99389.90
2022-12-15T01:43:17.853Z,99388.34
2022-12-15T01:48:31.576Z,99389.17
2022-12-15T01:53:44.136Z,99392.15
2022-12-15T01:58:54.031Z,99386.67
2022-12-15T02:04:00.734Z,99380.55
2022-12-15T02:09:07.827Z,99376.36
2022-12-15T02:14:20.004Z,99381.77
2022-12-15T02:19:59.219Z,99384.52
2022-12-15T02:25:19.137Z,99385.11
2022-12-15T02:30:34.547Z,99386.03
2022-12-15T02:35:50.154Z,99387.16
2022-12-15T02:41:02.086Z,99386.55
2022-12-15T02:46:20.291Z,99386.38
2022-12-15T02:51:40.207Z,99394.30
2022-12-15T02:56:58.282Z,99396.27
2022-12-15T03:02:08.971Z,99399.21
2022-12-15T03:07:15.510Z,99401.50
2022-12-15T03:12:21.173Z,99402.81
2022-12-15T03:17:26.865Z,99398.65
2022-12-15T03:22:32.803Z,99402.71
2022-12-15T03:27:38.613Z,99408.13
2022-12-15T03:32:44.336Z,99405.41
2022-12-15T03:37:50.210Z,99406.05
2022-12-15T03:42:55.905Z,99413.73
2022-12-15T03:48:01.808Z,99417.02
2022-12-15T03:53:07.854Z,99423.83
2022-12-15T03:58:13.832Z,99424.11
2022-12-15T04:03:19.749Z,99421.23
2022-12-15T04:08:26.856Z,99418.19
2022-12-15T04:13:33.059Z,99425.71
2022-12-15T04:18:39.483Z,99430.19
2022-12-15T04:24:04.232Z,99432.92
2022-12-15T04:29:28.552Z,99439.63
2022-12-15T04:34:54.256Z,99440.51
2022-12-15T04:40:20.071Z,99443.73
2022-12-15T04:45:45.357Z,99451.96
2022-12-15T04:51:09.890Z,99456.42
2022-12-15T04:56:35.814Z,99460.10
2022-12-15T05:02:00.498Z,99463.71
2022-12-15T05:07:24.945Z,99474.52
2022-12-15T05:12:50.121Z,99485.67
2022-12-15T05:18:14.995Z,99493.70
2022-12-15T05:23:39.662Z,99500.47
2022-12-15T05:29:04.334Z,99507.70
2022-12-15T05:34:10.068Z,99506.36
2022-12-15T05:39:15.765Z,99515.00
2022-12-15T05:44:21.609Z,99526.80
2022-12-15T05:49:27.321Z,99539.31
2022-12-15T05:54:33.309Z,99549.42
2022-12-15T05:59:39.032Z,99551.92
2022-12-15T06:04:44.937Z,99554.65
2022-12-15T06:09:50.880Z,99562.96
2022-12-15T06:14:56.796Z,99572.74
2022-12-15T06:20:02.948Z,99582.71
2022-12-15T06:25:10.075Z,99594.69
2022-12-15T06:30:16.790Z,99599.89
2022-12-15T06:35:22.452Z,99613.52
2022-12-15T06:40:36.271Z,99626.44
2022-12-15T06:45:50.054Z,99631.90
2022-12-15T06:50:56.085Z,99642.90
2022-12-15T06:56:04.321Z,99649.88
2022-12-15T07:01:11.043Z,99658.27
2022-12-15T07:06:18.948Z,99664.39
2022-12-15T07:11:24.837Z,99672.36
2022-12-15T07:16:31.227Z,99678.94
2022-12-15T07:21:37.317Z,99682.64
2022-12-15T07:26:43.180Z,99689.79
2022-12-15T07:31:49.371Z,99701.29
2022-12-15T07:36:55.652Z,99718.09
2022-12-15T07:42:02.001Z,99737.19
2022-12-15T07:47:07.871Z,99744.66
2022-12-15T07:52:14.195Z,99754.66
2022-12-15T07:57:20.144Z,99759.11
2022-12-15T08:02:26.173Z,99763.32
2022-12-15T08:07:32.157Z,99769.64
2022-12-15T08:12:38.106Z,99780.73
2022-12-15T08:17:46.686Z,99789.94
2022-12-15T08:22:52.901Z,99795.23
2022-12-15T08:27:58.761Z,99800.12
2022-12-15T08:33:05.022Z,99811.52
2022-12-15T08:38:10.768Z,99817.11
2022-12-15T08:43:16.455Z,99818.96
2022-12-15T08:48:23.876Z,99827.97
2022-12-15T08:53:31.652Z,99837.20
2022-12-15T08:58:38.609Z,99843.48
2022-12-15T09:03:45.058Z,99846.60
2022-12-15T09:08:53.450Z,99850.64
2022-12-15T09:14:00.483Z,99860.63
2022-12-15T09:19:08.192Z,99869.69
2022-12-15T09:24:24.748Z,99871.48
2022-12-15T09:29:34.100Z,99872.93
2022-12-15T09:34:40.208Z,99877.73
2022-12-15T09:39:46.154Z,99891.33
2022-12-15T09:44:58.461Z,99897.74
2022-12-15T09:50:09.504Z,99900.69
2022-12-15T09:55:18.755Z,99901.27
2022-12-15T10:00:29.804Z,99904.63
2022-12-15T10:11:21.662Z,99915.06
2022-12-15T10:16:34.938Z,99925.48
2022-12-15T10:21:41.394Z,99931.53
2022-12-15T10:26:54.131Z,99936.85
2022-12-15T10:32:05.094Z,99938.89
2022-12-15T10:37:13.544Z,99943.30
2022-12-15T10:42:22.041Z,99948.79
2022-12-15T10:47:31.464Z,99955.80
2022-12-15T10:52:38.873Z,99964.35
2022-12-15T10:58:00.344Z,99968.94
2022-12-15T11:03:23.219Z,99972.83
2022-12-15T11:08:31.356Z,99975.77
2022-12-15T11:13:38.054Z,99982.13
2022-12-15T11:18:48.940Z,99981.00
2022-12-15T11:24:05.771Z,99987.69
2022-12-15T11:29:23.524Z,99990.82
2022-12-15T11:34:36.828Z,99996.52
2022-12-15T11:39:57.752Z,100008.84
2022-12-15T11:45:07.935Z,100015.38
2022-12-15T11:50:28.183Z,100024.11
2022-12-15T11:55:43.010Z,100035.16
2022-12-15T12:00:59.103Z,100043.54
2022-12-15T12:06:12.018Z,100051.73
2022-12-15T12:11:21.717Z,100059.65
2022-12-15T12:16:40.306Z,100067.49
2022-12-15T12:27:31.837Z,100078.73
2022-12-15T12:32:50.724Z,100085.38
2022-12-15T12:43:34.946Z,100103.46
2022-12-15T12:48:48.502Z,100115.35
2022-12-15T12:53:55.643Z,100118.33
2022-12-15T12:59:07.879Z,100127.30
2022-12-15T13:04:34.428Z,100133.28
2022-12-15T13:09:43.213Z,100139.91
2022-12-15T13:14:51.925Z,100150.56
2022-12-15T13:20:24.856Z,100151.11
2022-12-15T13:25:42.862Z,100156.73
2022-12-15T13:31:22.450Z,100156.58
2022-12-15T13:37:01.804Z,100161.64
2022-12-15T13:42:35.026Z,100176.86
2022-12-15T13:47:50.379Z,100181.77
2022-12-15T13:58:30.243Z,100195.80
2022-12-15T14:03:37.320Z,100206.46
2022-12-15T14:08:44.000Z,100212.98
2022-12-15T14:13:54.204Z,100210.98
2022-12-15T14:19:15.157Z,100207.85
2022-12-15T14:30:18.285Z,100210.02
2022-12-15T14:35:29.535Z,100210.20
2022-12-15T14:40:37.861Z,100209.73
2022-12-15T14:45:44.160Z,100210.70
2022-12-15T14:50:51.271Z,100209.73
2022-12-15T14:55:59.263Z,100213.98
2022-12-15T15:01:19.039Z,100220.38
2022-12-15T15:03:05.967Z,100211.43
2022-12-15T15:03:07.202Z,100094.90
2022-12-15T15:03:12.135Z,100072.05
2022-12-15T15:06:32.258Z,100231.96
2022-12-15T15:11:40.746Z,100239.55
2022-12-15T15:16:58.590Z,100240.06
2022-12-15T15:22:04.800Z,100249.05
2022-12-15T15:27:35.041Z,100254.99
2022-12-15T15:32:51.644Z,100262.92
2022-12-15T15:38:03.400Z,100267.91
2022-12-15T15:43:13.200Z,100266.44
2022-12-15T15:48:25.109Z,100269.82
2022-12-15T15:53:33.277Z,100275.20
2022-12-15T15:58:39.408Z,100283.51
2022-12-15T16:03:45.569Z,100300.99
2022-12-15T16:08:56.238Z,100308.02
2022-12-15T16:14:01.570Z,100305.13
2022-12-15T16:19:08.766Z,100318.27
2022-12-15T16:24:19.467Z,100338.80
2022-12-15T16:29:25.274Z,100346.17
2022-12-15T16:34:31.297Z,100353.30
2022-12-15T16:39:37.426Z,100371.66
2022-12-15T16:44:43.396Z,100375.16
2022-12-15T16:49:49.385Z,100379.55
2022-12-15T16:54:56.579Z,100387.27
2022-12-15T17:00:02.715Z,100396.48
2022-12-15T17:05:09.842Z,100391.42
2022-12-15T17:10:22.404Z,100398.18
2022-12-15T17:15:29.381Z,100402.73
2022-12-15T17:20:35.334Z,100406.20
2022-12-15T17:26:19.675Z,100413.24
2022-12-15T17:31:16.570Z,100411.40
2022-12-15T17:36:24.501Z,100407.98
2022-12-15T17:42:01.443Z,100401.19
2022-12-15T17:46:56.723Z,100404.93
2022-12-15T17:52:06.610Z,100401.45
2022-12-15T17:57:12.952Z,100400.66
2022-12-15T18:02:19.112Z,100409.41
2022-12-15T18:07:25.824Z,100412.13
2022-12-15T18:12:31.834Z,100410.28
2022-12-15T18:17:37.619Z,100406.44
2022-12-15T18:22:43.909Z,100406.33
2022-12-15T18:27:50.002Z,100410.39
2022-12-15T18:32:58.496Z,100407.92
2022-12-15T18:38:12.104Z,100409.30
2022-12-15T18:43:20.556Z,100408.93
2022-12-15T18:48:27.932Z,100413.88
2022-12-15T18:53:36.769Z,100426.58
2022-12-15T18:58:43.052Z,100426.55
2022-12-15T19:03:48.985Z,100424.75
2022-12-15T19:08:54.916Z,100421.84
2022-12-15T19:14:02.462Z,100432.65
2022-12-15T19:19:31.183Z,100446.00
2022-12-15T19:24:55.568Z,100455.96
2022-12-15T19:30:01.644Z,100462.40
2022-12-15T19:35:08.574Z,100465.89
2022-12-15T19:40:22.303Z,100466.94
2022-12-15T19:45:30.173Z,100461.08
2022-12-15T19:50:40.815Z,100460.30
2022-12-15T19:55:46.831Z,100460.97
2022-12-15T20:00:52.982Z,100456.81
2022-12-15T20:06:01.007Z,100460.83
2022-12-15T20:11:09.281Z,100457.73
2022-12-15T20:16:19.367Z,100463.40
2022-12-15T20:21:31.491Z,100462.89
2022-12-15T20:26:39.140Z,100458.59
2022-12-15T20:31:45.261Z,100460.52
2022-12-15T20:36:51.676Z,100464.88
2022-12-15T20:41:58.225Z,100473.08
2022-12-15T20:47:04.220Z,100471.73
2022-12-15T20:52:18.548Z,100459.70
2022-12-15T20:57:24.349Z,100457.42
2022-12-15T21:02:31.084Z,100460.35
2022-12-15T21:07:37.062Z,100464.73
2022-12-15T21:12:45.887Z,100469.86
2022-12-15T21:18:11.245Z,100473.00
2022-12-15T21:23:25.709Z,100475.08
2022-12-15T21:28:31.930Z,100477.51
2022-12-15T21:33:38.140Z,100485.24
2022-12-15T21:38:47.329Z,100477.92
2022-12-15T21:43:53.440Z,100482.52
2022-12-15T21:49:18.334Z,100479.13
2022-12-15T21:54:30.727Z,100475.37
2022-12-15T21:59:37.667Z,100485.94
2022-12-15T22:04:43.519Z,100476.44
2022-12-15T22:09:49.422Z,100470.75
2022-12-15T22:14:57.886Z,100461.27
2022-12-15T22:20:12.808Z,100457.70
2022-12-15T22:25:21.281Z,100457.67
2022-12-15T22:30:28.322Z,100471.29
2022-12-15T22:35:34.268Z,100477.69
2022-12-15T22:40:40.175Z,100490.11
2022-12-15T22:45:47.875Z,100494.80
2022-12-15T22:50:53.930Z,100495.84
2022-12-15T22:56:03.469Z,100500.94
2022-12-15T23:01:10.266Z,100499.04
2022-12-15T23:06:16.177Z,100493.10
2022-12-15T23:11:37.813Z,100494.92
2022-12-15T23:16:45.551Z,100490.94
2022-12-15T23:21:52.036Z,100477.10
2022-12-15T23:26:58.276Z,100476.87
2022-12-15T23:32:04.611Z,100490.75
2022-12-15T23:37:10.493Z,100497.68
2022-12-15T23:42:16.375Z,100503.86
2022-12-15T23:47:22.234Z,100498.55
2022-12-15T23:52:29.475Z,100500.36
2022-12-15T23:57:35.688Z,100497.30
